Time;durP1;ratioP1;P1;durP2;ratioP2;P2;SDS_P1;SDS_P2;PMS_P1;PMS_P2;Temp;Humidity;BMP_temperature;BMP_pressure;BME280_temperature;BME280_humidity;BME280_pressure;Samples;Min_cycle;Max_cycle;Signal;HPM_P1;HPM_P2
2023/03/16 00:00:50;;;;;;;0.30;0.30;;;;;;;8.58;54.24;99804.66;5055510;28;20028;-63
2023/03/16 00:03:18;;;;;;;0.30;0.30;;;;;;;8.53;53.86;99813.22;5056223;28;20025;-63
2023/03/16 00:05:57;;;;;;;0.28;0.28;;;;;;;8.58;53.52;99826.81;5055415;28;20033;-62
2023/03/16 00:08:25;;;;;;;0.20;0.20;;;;;;;8.68;53.29;99823.50;5055532;28;20033;-64
2023/03/16 00:10:52;;;;;;;0.28;0.28;;;;;;;8.60;53.28;99818.94;5055169;28;20047;-63
2023/03/16 00:13:24;;;;;;;0.30;0.30;;;;;;;8.71;53.23;99831.09;5056353;28;20032;-63
2023/03/16 00:15:59;;;;;;;0.20;0.20;;;;;;;8.69;53.85;99822.34;5053694;28;20025;-63
2023/03/16 00:18:28;;;;;;;0.20;0.20;;;;;;;8.71;54.44;99824.75;5055196;28;20032;-63
2023/03/16 00:20:57;;;;;;;0.20;0.20;;;;;;;8.75;54.64;99832.00;5054551;28;20025;-67
2023/03/16 00:23:26;;;;;;;0.20;0.20;;;;;;;8.64;54.52;99833.72;5054596;28;20029;-63
2023/03/16 00:26:03;;;;;;;0.20;0.20;;;;;;;8.72;54.25;99838.25;5055836;28;20353;-63
2023/03/16 00:28:33;;;;;;;0.20;0.20;;;;;;;8.61;55.12;99838.00;5054778;28;20025;-63
2023/03/16 00:31:10;;;;;;;0.30;0.30;;;;;;;8.62;55.09;99852.66;5054589;28;20033;-63
2023/03/16 00:33:39;;;;;;;0.30;0.30;;;;;;;8.57;55.26;99848.19;5055193;28;20033;-63
2023/03/16 00:36:10;;;;;;;0.30;0.30;;;;;;;8.53;55.38;99855.63;5054617;28;20456;-63
2023/03/16 00:38:38;;;;;;;0.20;0.20;;;;;;;8.56;55.77;99854.09;5054845;28;20041;-63
2023/03/16 00:41:06;;;;;;;0.20;0.20;;;;;;;8.52;54.94;99847.66;5054700;28;20432;-63
2023/03/16 00:43:39;;;;;;;0.20;0.20;;;;;;;8.54;55.05;99851.69;5054804;28;20402;-63
2023/03/16 00:46:06;;;;;;;0.20;0.20;;;;;;;8.46;55.55;99851.84;5054442;28;20048;-61
2023/03/16 00:48:36;;;;;;;0.20;0.20;;;;;;;8.46;55.88;99849.06;5054094;28;20029;-62
2023/03/16 00:51:05;;;;;;;0.30;0.30;;;;;;;8.50;55.33;99836.13;5054035;28;20032;-62
2023/03/16 00:53:35;;;;;;;0.30;0.30;;;;;;;8.46;54.68;99835.22;5055949;28;20036;-62
2023/03/16 00:56:03;;;;;;;0.30;0.30;;;;;;;8.53;54.28;99829.88;5053994;28;20021;-62
2023/03/16 00:58:35;;;;;;;0.30;0.30;;;;;;;8.49;54.12;99829.78;5063586;28;20040;-63
2023/03/16 01:01:03;;;;;;;0.30;0.30;;;;;;;8.60;52.50;99832.81;5074420;28;20031;-64
2023/03/16 01:03:29;;;;;;;0.20;0.20;;;;;;;8.63;52.05;99829.34;5075853;28;20028;-62
2023/03/16 01:05:59;;;;;;;0.25;0.25;;;;;;;8.68;51.48;99825.47;5073737;28;20029;-62
2023/03/16 01:08:26;;;;;;;0.20;0.20;;;;;;;8.70;51.52;99823.94;5073813;28;20036;-62
2023/03/16 01:10:56;;;;;;;0.20;0.20;;;;;;;8.68;51.43;99809.63;5073591;28;20032;-62
2023/03/16 01:13:24;;;;;;;0.20;0.20;;;;;;;8.66;52.06;99807.22;5073582;28;20468;-62
2023/03/16 01:15:53;;;;;;;0.20;0.20;;;;;;;8.64;52.00;99798.47;5073744;28;20059;-62
2023/03/16 01:18:19;;;;;;;0.30;0.30;;;;;;;8.65;52.02;99797.28;5073498;28;20479;-63
2023/03/16 01:20:50;;;;;;;0.20;0.20;;;;;;;8.65;52.53;99800.06;5073337;28;20031;-62
2023/03/16 01:23:17;;;;;;;0.20;0.20;;;;;;;8.62;52.37;99798.00;5073334;28;20540;-62
2023/03/16 01:25:42;;;;;;;0.20;0.20;;;;;;;8.61;51.42;99782.53;5073641;28;20379;-62
2023/03/16 01:28:09;;;;;;;0.20;0.20;;;;;;;8.66;50.97;99792.53;5073898;28;20035;-62
2023/03/16 01:30:34;;;;;;;0.30;0.30;;;;;;;8.64;51.59;99789.34;5073544;28;20039;-63
2023/03/16 01:33:00;;;;;;;0.30;0.30;;;;;;;8.62;51.18;99778.59;5073805;28;20024;-62
2023/03/16 01:35:31;;;;;;;0.30;0.30;;;;;;;8.67;50.73;99783.06;5073495;28;20036;-62
2023/03/16 01:38:03;;;;;;;0.20;0.20;;;;;;;8.64;52.05;99781.00;5073442;28;20083;-62
2023/03/16 01:40:31;;;;;;;0.30;0.30;;;;;;;8.61;50.26;99782.53;5072993;28;20086;-62
2023/03/16 01:43:06;;;;;;;0.20;0.20;;;;;;;8.72;49.18;99788.31;5073518;28;20453;-62
2023/03/16 01:46:05;;;;;;;0.30;0.30;;;;;;;8.75;49.27;99782.06;5073246;28;20028;-62
2023/03/16 01:48:36;;;;;;;0.20;0.20;;;;;;;8.78;48.68;99786.09;5073195;28;20028;-62
2023/03/16 01:51:23;;;;;;;0.20;0.20;;;;;;;8.75;48.69;99787.63;5073965;28;20064;-62
2023/03/16 01:53:56;;;;;;;0.30;0.30;;;;;;;8.73;48.63;99795.47;5071876;28;20046;-62
2023/03/16 01:56:33;;;;;;;0.30;0.30;;;;;;;8.72;48.42;99802.19;5073368;28;20101;-62
2023/03/16 01:59:05;;;;;;;0.20;0.20;;;;;;;8.66;47.98;99801.66;5087586;28;20313;-62
2023/03/16 02:01:32;;;;;;;0.20;0.20;;;;;;;8.73;46.65;99797.44;5094254;28;20516;-62
2023/03/16 02:04:34;;;;;;;0.20;0.20;;;;;;;8.70;46.58;99793.44;5094522;28;20028;-62
2023/03/16 02:07:05;;;;;;;0.30;0.30;;;;;;;8.78;45.33;99803.53;5042811;28;20039;-62
2023/03/16 02:09:36;;;;;;;0.20;0.20;;;;;;;8.84;45.40;99807.66;5094967;28;20027;-63
2023/03/16 02:12:05;;;;;;;0.25;0.25;;;;;;;8.89;45.14;99799.06;5094105;28;20055;-62
2023/03/16 02:14:35;;;;;;;0.20;0.20;;;;;;;8.82;46.14;99793.31;5093354;28;20032;-62
2023/03/16 02:17:03;;;;;;;0.20;0.20;;;;;;;8.88;45.94;99819.63;5075932;28;20078;-62
2023/03/16 02:19:55;;;;;;;0.30;0.30;;;;;;;8.91;45.25;99824.47;5075838;28;20020;-63
2023/03/16 02:22:23;;;;;;;0.20;0.20;;;;;;;8.93;43.78;99788.81;5093513;28;20043;-62
2023/03/16 02:24:51;;;;;;;0.20;0.20;;;;;;;8.90;43.79;99784.03;5076428;28;20024;-62
2023/03/16 02:27:35;;;;;;;0.20;0.20;;;;;;;8.85;45.36;99803.72;5092921;28;20028;-62
2023/03/16 02:30:11;;;;;;;0.20;0.20;;;;;;;8.83;45.53;99797.69;5075787;28;20032;-63
2023/03/16 02:32:39;;;;;;;0.28;0.28;;;;;;;8.77;46.51;99807.47;5076244;28;20482;-62
2023/03/16 02:35:09;;;;;;;0.30;0.30;;;;;;;8.70;46.38;99789.88;5076134;28;20032;-62
2023/03/16 02:37:34;;;;;;;0.20;0.20;;;;;;;8.73;45.38;99784.38;5076196;28;20055;-62
2023/03/16 02:40:16;;;;;;;0.30;0.30;;;;;;;8.66;44.38;99801.66;5081061;28;20471;-64
2023/03/16 02:42:42;;;;;;;0.20;0.20;;;;;;;8.71;44.70;99808.91;5102425;28;20038;-63
2023/03/16 02:45:14;;;;;;;0.20;0.20;;;;;;;8.61;45.02;99803.91;5081590;28;20526;-63
2023/03/16 02:47:46;;;;;;;0.25;0.25;;;;;;;8.77;42.18;99806.66;5097618;28;20028;-62
2023/03/16 02:50:12;;;;;;;0.20;0.20;;;;;;;8.72;42.68;99799.44;5079710;28;20107;-62
2023/03/16 02:52:38;;;;;;;0.20;0.20;;;;;;;8.74;43.61;99824.06;5079621;28;20123;-62
2023/03/16 02:55:10;;;;;;;0.20;0.20;;;;;;;8.65;43.71;99816.69;5080182;28;20103;-62
2023/03/16 02:57:37;;;;;;;0.20;0.20;;;;;;;8.58;43.01;99819.31;5097817;28;20020;-62
2023/03/16 03:00:11;;;;;;;0.20;0.20;;;;;;;8.59;42.95;99826.47;5080012;28;20059;-62
2023/03/16 03:02:37;;;;;;;0.30;0.30;;;;;;;8.62;42.54;99828.50;5079763;28;20035;-62
2023/03/16 03:05:08;;;;;;;0.20;0.20;;;;;;;8.58;42.81;99827.63;5079951;28;20024;-62
2023/03/16 03:07:39;;;;;;;0.20;0.20;;;;;;;8.56;44.16;99834.69;5079623;28;20031;-62
2023/03/16 03:10:12;;;;;;;0.20;0.20;;;;;;;8.46;44.40;99827.69;5079266;28;20024;-62
2023/03/16 03:12:41;;;;;;;0.20;0.20;;;;;;;8.42;44.94;99834.34;5097777;28;20039;-63
2023/03/16 03:15:11;;;;;;;0.20;0.20;;;;;;;8.33;45.43;99843.59;5079469;28;20502;-63
2023/03/16 03:17:41;;;;;;;0.20;0.20;;;;;;;8.35;45.50;99835.72;5079373;28;20075;-62
2023/03/16 03:20:16;;;;;;;0.30;0.30;;;;;;;8.30;45.50;99838.75;5078997;28;20064;-62
2023/03/16 03:22:46;;;;;;;0.20;0.20;;;;;;;8.27;45.49;99845.00;5079610;28;20115;-63
2023/03/16 03:25:14;;;;;;;0.20;0.20;;;;;;;8.03;45.44;99812.69;5097351;28;20027;-62
2023/03/16 03:27:41;;;;;;;0.30;0.30;;;;;;;8.28;45.80;99845.81;5079035;28;20442;-62
2023/03/16 03:30:12;;;;;;;0.20;0.20;;;;;;;8.25;45.15;99850.09;5079199;28;20050;-62
2023/03/16 03:32:38;;;;;;;0.20;0.20;;;;;;;8.24;45.70;99853.22;5097388;28;20028;-62
2023/03/16 03:35:05;;;;;;;0.30;0.30;;;;;;;8.13;45.66;99847.41;5079101;28;20023;-62
2023/03/16 03:37:36;;;;;;;0.20;0.20;;;;;;;8.23;45.24;99857.97;5078749;28;20076;-62
2023/03/16 03:40:09;;;;;;;0.20;0.20;;;;;;;8.18;46.17;99861.00;5097196;28;20377;-62
2023/03/16 03:42:34;;;;;;;0.20;0.20;;;;;;;8.16;46.18;99866.09;5079054;28;20101;-62
2023/03/16 03:45:00;;;;;;;0.20;0.20;;;;;;;8.10;45.74;99861.97;5078685;28;20039;-62
2023/03/16 03:47:28;;;;;;;0.30;0.30;;;;;;;8.07;46.66;99868.22;5079213;28;20039;-62
2023/03/16 03:49:55;;;;;;;0.20;0.20;;;;;;;8.11;46.25;99869.13;5079097;28;20458;-62
2023/03/16 03:52:21;;;;;;;0.20;0.20;;;;;;;8.07;46.50;99876.53;5078460;28;20028;-62
2023/03/16 03:54:46;;;;;;;0.30;0.30;;;;;;;8.02;47.25;99871.22;5078442;28;20035;-62
2023/03/16 03:57:12;;;;;;;0.30;0.30;;;;;;;7.98;47.24;99868.34;5078594;28;20028;-62
2023/03/16 03:59:42;;;;;;;0.30;0.30;;;;;;;8.05;46.27;99865.00;5078597;28;20113;-62
2023/03/16 04:02:12;;;;;;;0.20;0.20;;;;;;;8.03;46.34;99868.09;5078821;28;20020;-62
2023/03/16 04:04:39;;;;;;;0.20;0.20;;;;;;;8.05;46.98;99859.47;5078937;28;20382;-62
2023/03/16 04:07:05;;;;;;;0.30;0.30;;;;;;;7.99;48.01;99866.38;5096741;28;20485;-62
2023/03/16 04:09:36;;;;;;;0.22;0.22;;;;;;;7.95;47.12;99859.97;5095146;28;20119;-64
2023/03/16 04:12:05;;;;;;;0.20;0.20;;;;;;;7.95;46.66;99863.53;5095978;28;20031;-62
2023/03/16 04:14:31;;;;;;;0.20;0.20;;;;;;;7.95;47.11;99890.44;5078754;28;20035;-62
2023/03/16 04:17:03;;;;;;;0.30;0.30;;;;;;;7.99;46.09;99877.47;5078207;28;20367;-62
2023/03/16 04:19:31;;;;;;;0.30;0.30;;;;;;;7.97;45.94;99888.09;5078008;28;20090;-62
2023/03/16 04:22:02;;;;;;;0.20;0.20;;;;;;;7.97;46.57;99888.09;5095339;28;20036;-63
2023/03/16 04:24:33;;;;;;;0.30;0.30;;;;;;;7.96;46.14;99889.28;5095590;28;20348;-64
2023/03/16 04:26:59;;;;;;;0.20;0.20;;;;;;;7.94;46.51;99891.59;5094770;28;20111;-63
2023/03/16 04:29:28;;;;;;;0.30;0.30;;;;;;;8.01;46.88;99900.09;5078106;28;20043;-63
2023/03/16 04:31:55;;;;;;;0.20;0.20;;;;;;;7.87;46.83;99892.97;5095720;28;20032;-62
2023/03/16 04:34:26;;;;;;;0.30;0.30;;;;;;;7.88;46.13;99894.63;5078323;28;20075;-62
2023/03/16 04:36:52;;;;;;;0.20;0.20;;;;;;;7.92;47.36;99904.97;5095122;28;20031;-62
2023/03/16 04:39:22;;;;;;;0.30;0.30;;;;;;;7.70;47.56;99875.84;5077776;28;20459;-62
2023/03/16 04:41:52;;;;;;;0.30;0.30;;;;;;;7.82;48.10;99917.34;5077631;28;20031;-63
2023/03/16 04:44:21;;;;;;;0.20;0.20;;;;;;;7.84;47.50;99915.88;5077514;28;20486;-63
2023/03/16 04:46:46;;;;;;;0.20;0.20;;;;;;;7.84;46.44;99913.09;5090387;28;20105;-63
2023/03/16 04:49:12;;;;;;;0.20;0.20;;;;;;;7.94;44.68;99909.03;5077505;28;20032;-63
2023/03/16 04:51:39;;;;;;;0.30;0.30;;;;;;;7.99;43.81;99905.16;5077360;28;20024;-62
2023/03/16 04:54:05;;;;;;;0.20;0.20;;;;;;;8.07;43.45;99901.47;5093868;28;20036;-64
2023/03/16 04:56:33;;;;;;;0.22;0.22;;;;;;;7.89;44.17;99917.59;5077229;28;20070;-62
2023/03/16 04:58:59;;;;;;;0.20;0.20;;;;;;;8.06;43.62;99913.72;5093829;28;20051;-63
2023/03/16 05:01:24;;;;;;;0.20;0.20;;;;;;;8.03;44.20;99911.63;5076738;28;20498;-63
2023/03/16 05:03:52;;;;;;;0.20;0.20;;;;;;;8.04;43.79;99908.53;5077104;28;20035;-62
2023/03/16 05:06:18;;;;;;;0.30;0.30;;;;;;;8.02;43.37;99921.09;5094288;28;20405;-63
2023/03/16 05:08:43;;;;;;;0.20;0.20;;;;;;;8.00;44.11;99924.25;5094481;28;20085;-63
2023/03/16 05:11:11;;;;;;;0.30;0.30;;;;;;;7.97;43.90;99911.06;5076943;28;20493;-63
2023/03/16 05:13:37;;;;;;;0.20;0.20;;;;;;;8.01;42.93;99912.00;5076954;28;20066;-63
2023/03/16 05:16:05;;;;;;;0.20;0.20;;;;;;;7.93;43.64;99914.91;5076960;28;20055;-62
2023/03/16 05:18:34;;;;;;;0.20;0.20;;;;;;;7.99;43.52;99919.03;5076744;28;20085;-63
2023/03/16 05:21:02;;;;;;;0.20;0.20;;;;;;;7.93;43.69;99924.00;5076762;28;20115;-62
2023/03/16 05:23:30;;;;;;;0.20;0.20;;;;;;;7.99;43.01;99932.88;5077608;28;20425;-63
2023/03/16 05:26:01;;;;;;;0.30;0.30;;;;;;;8.03;42.87;99936.56;5077060;28;20115;-62
2023/03/16 05:28:30;;;;;;;0.30;0.30;;;;;;;7.99;43.17;99950.34;5093560;28;20123;-63
2023/03/16 05:30:58;;;;;;;0.20;0.20;;;;;;;8.07;42.48;99934.72;5076908;28;20016;-62
2023/03/16 05:33:26;;;;;;;0.30;0.30;;;;;;;8.10;42.79;99950.66;5092956;28;20039;-63
2023/03/16 05:36:00;;;;;;;0.30;0.30;;;;;;;8.72;41.95;99946.44;5076706;28;20055;-62
2023/03/16 05:38:31;;;;;;;0.20;0.20;;;;;;;9.07;39.88;99956.84;5079969;28;20078;-63
2023/03/16 05:41:00;;;;;;;0.20;0.20;;;;;;;9.36;39.56;99938.91;5081829;28;20028;-65
2023/03/16 05:43:34;;;;;;;0.20;0.20;;;;;;;9.63;40.33;99976.03;5078351;28;20112;-63
2023/03/16 05:46:02;;;;;;;0.20;0.20;;;;;;;9.88;40.51;99963.53;5094253;28;20073;-62
2023/03/16 05:48:30;;;;;;;0.22;0.22;;;;;;;10.16;39.28;99959.75;5076868;28;20023;-62
2023/03/16 05:51:05;;;;;;;0.30;0.30;;;;;;;9.38;39.98;99969.91;5076623;28;20118;-63
2023/03/16 05:53:34;;;;;;;0.20;0.20;;;;;;;8.88;40.70;99958.34;5076210;28;20544;-63
2023/03/16 05:56:05;;;;;;;0.20;0.20;;;;;;;8.79;40.40;99965.22;5075786;28;20486;-62
2023/03/16 05:58:32;;;;;;;0.20;0.20;;;;;;;8.73;40.27;99964.69;5092772;28;20048;-62
2023/03/16 06:01:01;;;;;;;0.30;0.30;;;;;;;8.99;40.20;99972.50;5076336;28;20028;-63
2023/03/16 06:03:31;;;;;;;0.22;0.22;;;;;;;9.77;38.73;99987.50;5076609;28;20425;-63
2023/03/16 06:06:00;;;;;;;0.30;0.30;;;;;;;9.92;38.07;100006.09;5076126;28;20127;-62
2023/03/16 06:08:28;;;;;;;0.30;0.30;;;;;;;10.04;38.14;99996.03;5076924;28;20051;-62
2023/03/16 06:10:59;;;;;;;0.30;0.30;;;;;;;10.94;35.97;100008.59;5093283;28;20024;-63
2023/03/16 06:13:28;;;;;;;0.30;0.30;;;;;;;11.44;35.44;100003.09;5075342;28;20035;-63
2023/03/16 06:15:53;;;;;;;0.28;0.28;;;;;;;11.11;33.98;100020.44;5075990;28;20031;-63
2023/03/16 06:18:21;;;;;;;0.30;0.30;;;;;;;11.11;34.37;100023.22;5076864;28;20122;-63
2023/03/16 06:20:49;;;;;;;0.30;0.30;;;;;;;11.32;33.94;100037.53;5093842;28;20036;-62
2023/03/16 06:23:19;;;;;;;0.20;0.20;;;;;;;12.23;33.56;100044.16;5075984;28;20028;-62
2023/03/16 06:25:48;;;;;;;0.20;0.20;;;;;;;12.34;33.62;100042.31;5076100;28;20054;-63
2023/03/16 06:28:16;;;;;;;0.20;0.20;;;;;;;11.38;34.98;100035.22;5076444;28;20162;-62
2023/03/16 06:30:45;;;;;;;0.20;0.20;;;;;;;10.53;35.09;100048.34;5075374;28;20028;-64
2023/03/16 06:33:12;;;;;;;0.20;0.20;;;;;;;10.27;35.93;100044.22;5076352;28;20047;-63
2023/03/16 06:35:38;;;;;;;0.30;0.30;;;;;;;10.72;35.84;100037.22;5076022;28;20035;-63
2023/03/16 06:38:06;;;;;;;0.20;0.20;;;;;;;11.24;34.14;100058.09;5093186;28;20036;-63
2023/03/16 06:40:34;;;;;;;0.20;0.20;;;;;;;11.49;33.31;100048.16;5075594;28;20020;-63
2023/03/16 06:43:00;;;;;;;0.20;0.20;;;;;;;12.48;32.63;100056.47;5075625;28;20036;-63
2023/03/16 06:45:26;;;;;;;0.20;0.20;;;;;;;12.93;30.99;100059.38;5075976;28;20048;-63
2023/03/16 06:47:52;;;;;;;0.28;0.28;;;;;;;12.44;30.58;100066.75;5093005;28;20119;-62
2023/03/16 06:53:07;;;;;;;0.20;0.20;;;;;;;13.02;29.96;100051.50;5094827;28;20387;-63
2023/03/16 06:55:35;;;;;;;0.20;0.20;;;;;;;12.81;29.91;100068.81;5077256;28;20024;-63
2023/03/16 06:58:04;;;;;;;0.20;0.20;;;;;;;12.81;30.16;100054.84;5067500;28;20049;-63
2023/03/16 07:00:32;;;;;;;0.30;0.30;;;;;;;12.79;30.72;100051.66;5053078;28;20021;-63
2023/03/16 07:02:59;;;;;;;0.20;0.20;;;;;;;13.19;30.28;100069.63;5053387;28;20037;-63
2023/03/16 07:05:27;;;;;;;0.20;0.20;;;;;;;13.09;30.49;100041.19;5052402;28;20064;-63
2023/03/16 07:07:55;;;;;;;0.20;0.20;;;;;;;12.63;29.72;100065.03;5052662;28;20052;-63
2023/03/16 07:10:24;;;;;;;0.20;0.20;;;;;;;12.45;29.42;100071.16;5052017;28;20029;-62
2023/03/16 07:12:50;;;;;;;0.30;0.30;;;;;;;12.53;29.14;100067.28;5052030;28;20120;-63
2023/03/16 07:15:18;;;;;;;0.30;0.30;;;;;;;12.69;29.20;100063.50;5052546;28;20111;-63
2023/03/16 07:17:46;;;;;;;0.20;0.20;;;;;;;12.88;29.71;100049.34;5051927;28;20128;-62
2023/03/16 07:20:14;;;;;;;0.20;0.20;;;;;;;12.85;29.46;100070.47;5051839;28;20024;-63
2023/03/16 07:22:42;;;;;;;0.20;0.20;;;;;;;12.82;29.92;100073.22;5052489;28;20136;-63
2023/03/16 07:25:12;;;;;;;0.20;0.20;;;;;;;13.10;28.70;100070.75;5052918;28;20471;-64
2023/03/16 07:27:40;;;;;;;0.20;0.20;;;;;;;12.74;29.66;100077.91;5057437;28;20051;-63
2023/03/16 07:30:06;;;;;;;0.20;0.20;;;;;;;12.80;29.67;100070.00;5056414;28;20379;-65
2023/03/16 07:32:36;;;;;;;0.30;0.30;;;;;;;12.70;30.89;100070.69;5055558;28;20040;-62
2023/03/16 07:35:02;;;;;;;0.20;0.20;;;;;;;12.53;30.93;100064.50;5055532;28;20029;-62
2023/03/16 07:37:33;;;;;;;0.22;0.22;;;;;;;12.46;31.24;100047.63;5055728;28;20116;-63
2023/03/16 07:39:59;;;;;;;0.30;0.30;;;;;;;12.13;31.07;100048.38;5055334;28;20021;-63
2023/03/16 07:42:25;;;;;;;0.20;0.20;;;;;;;12.69;30.45;100063.50;5055311;28;20037;-62
2023/03/16 07:44:54;;;;;;;0.20;0.20;;;;;;;12.77;31.13;100065.19;5055615;28;20029;-63
2023/03/16 07:47:23;;;;;;;0.22;0.22;;;;;;;12.26;30.67;100102.00;5056854;28;20472;-63
2023/03/16 07:49:53;;;;;;;0.20;0.20;;;;;;;12.53;31.05;100056.13;5055524;28;20024;-64
2023/03/16 07:52:21;;;;;;;0.20;0.20;;;;;;;12.31;30.94;100084.94;5055140;28;20037;-63
2023/03/16 07:54:47;;;;;;;0.20;0.20;;;;;;;12.36;31.13;100092.97;5055125;28;20472;-63
2023/03/16 07:57:13;;;;;;;0.20;0.20;;;;;;;12.74;31.11;100096.66;5055425;28;20033;-63
2023/03/16 07:59:43;;;;;;;0.20;0.20;;;;;;;12.47;31.84;100113.47;5054515;28;20554;-63
2023/03/16 08:02:12;;;;;;;0.20;0.20;;;;;;;13.08;31.54;100119.81;5055005;28;20056;-63
2023/03/16 08:04:43;;;;;;;0.20;0.20;;;;;;;13.20;30.84;100119.53;5054993;28;20033;-62
2023/03/16 08:07:13;;;;;;;0.30;0.30;;;;;;;13.06;31.33;100117.41;5056357;28;20474;-63
2023/03/16 08:09:41;;;;;;;0.20;0.20;;;;;;;13.00;30.59;100116.13;5055577;28;20461;-63
2023/03/16 08:12:08;;;;;;;0.20;0.20;;;;;;;13.83;31.27;100126.19;5054828;28;20025;-63
2023/03/16 08:14:37;;;;;;;0.20;0.20;;;;;;;13.26;30.45;100132.03;5056628;28;20090;-63
2023/03/16 08:17:04;;;;;;;0.20;0.20;;;;;;;13.14;30.36;100139.81;5054869;28;20017;-63
2023/03/16 08:19:35;;;;;;;0.20;0.20;;;;;;;13.39;30.56;100152.13;5054562;28;20033;-63
2023/03/16 08:22:02;;;;;;;0.20;0.20;;;;;;;13.68;29.92;100153.19;5054625;28;20086;-64
2023/03/16 08:24:30;;;;;;;0.30;0.30;;;;;;;13.38;30.48;100149.72;5054952;28;20051;-64
2023/03/16 08:27:02;;;;;;;0.20;0.20;;;;;;;13.07;29.82;100141.34;5054923;28;20028;-63
2023/03/16 08:29:33;;;;;;;0.25;0.25;;;;;;;13.23;30.05;100148.75;5054961;28;20029;-63
2023/03/16 08:32:01;;;;;;;0.20;0.20;;;;;;;13.47;29.24;100142.59;5054681;28;20025;-68
2023/03/16 08:34:30;;;;;;;0.20;0.20;;;;;;;13.09;30.13;100157.72;5059159;28;20036;-64
2023/03/16 08:37:01;;;;;;;0.20;0.20;;;;;;;13.51;30.36;100149.03;5059662;28;20028;-64
2023/03/16 08:39:31;;;;;;;0.20;0.20;;;;;;;13.47;29.90;100145.41;5055652;28;20029;-63
2023/03/16 08:42:00;;;;;;;0.20;0.20;;;;;;;14.15;29.45;100158.03;5054231;28;20032;-63
2023/03/16 08:44:31;;;;;;;0.20;0.20;;;;;;;14.52;28.62;100151.50;5054521;28;20031;-63
2023/03/16 08:47:00;;;;;;;0.20;0.20;;;;;;;14.59;29.41;100156.34;5055749;28;20029;-63
2023/03/16 08:49:28;;;;;;;0.20;0.20;;;;;;;13.85;28.66;100154.59;5054446;28;20032;-64
2023/03/16 08:51:56;;;;;;;0.20;0.20;;;;;;;14.34;30.35;100170.97;5054693;28;20029;-63
2023/03/16 08:54:24;;;;;;;0.20;0.20;;;;;;;14.80;29.47;100166.88;5054007;28;20033;-63
2023/03/16 08:56:52;;;;;;;0.20;0.20;;;;;;;14.73;29.69;100164.03;5054780;28;20086;-63
2023/03/16 08:59:20;;;;;;;0.20;0.20;;;;;;;14.48;28.66;100164.69;5053529;28;20045;-63
2023/03/16 09:01:51;;;;;;;0.20;0.20;;;;;;;14.96;29.76;100167.34;5053885;28;20027;-63
2023/03/16 09:04:20;;;;;;;0.20;0.20;;;;;;;14.99;28.77;100169.38;5054146;28;20026;-63
2023/03/16 09:06:50;;;;;;;0.20;0.20;;;;;;;14.80;28.06;100173.28;5054125;28;20039;-63
2023/03/16 09:09:16;;;;;;;0.20;0.20;;;;;;;15.35;27.89;100181.53;5054335;28;20025;-63
2023/03/16 09:11:43;;;;;;;0.20;0.20;;;;;;;15.55;28.11;100162.34;5053709;28;20035;-61
2023/03/16 09:14:14;;;;;;;0.20;0.20;;;;;;;15.96;28.22;100167.66;5053969;28;20116;-61
2023/03/16 09:16:43;;;;;;;0.20;0.20;;;;;;;16.29;26.75;100176.88;5055638;28;20079;-63
2023/03/16 09:19:10;;;;;;;0.30;0.30;;;;;;;14.54;26.34;100173.50;5054294;28;20021;-63
2023/03/16 09:21:42;;;;;;;0.20;0.20;;;;;;;13.97;27.68;100176.66;5055110;28;20028;-63
2023/03/16 09:24:07;;;;;;;0.20;0.20;;;;;;;14.83;27.90;100166.09;5054230;28;20494;-63
2023/03/16 09:26:35;;;;;;;0.20;0.20;;;;;;;15.09;25.96;100168.63;5053412;28;20060;-63
2023/03/16 09:29:06;;;;;;;0.20;0.20;;;;;;;14.50;25.67;100165.13;5053665;28;20036;-62
2023/03/16 09:31:35;;;;;;;0.20;0.20;;;;;;;14.11;25.34;100181.56;5053332;28;20029;-63
2023/03/16 09:34:03;;;;;;;0.20;0.20;;;;;;;14.66;25.37;100174.00;5055082;28;20162;-63
2023/03/16 09:36:34;;;;;;;0.20;0.20;;;;;;;15.47;26.20;100191.59;5053915;28;20033;-63
2023/03/16 09:39:03;;;;;;;0.20;0.20;;;;;;;15.41;24.41;100195.97;5053137;28;20029;-63
2023/03/16 09:41:40;;;;;;;0.20;0.20;;;;;;;15.31;24.53;100185.53;5053071;28;20024;-64
2023/03/16 09:44:22;;;;;;;0.20;0.20;;;;;;;15.61;23.95;100194.44;5052650;28;20067;-63
2023/03/16 09:46:53;;;;;;;0.20;0.20;;;;;;;15.11;24.43;100199.84;5053602;28;20029;-63
2023/03/16 09:49:26;;;;;;;0.20;0.20;;;;;;;14.60;24.39;100175.59;5052837;28;20024;-63
2023/03/16 09:52:18;;;;;;;0.20;0.20;;;;;;;15.27;24.08;100190.31;5053058;28;20029;-62
2023/03/16 09:54:55;;;;;;;0.20;0.20;;;;;;;14.67;24.16;100184.00;5052957;28;20017;-62
2023/03/16 09:57:51;;;;;;;0.20;0.20;;;;;;;14.20;24.97;100184.03;5053717;28;20337;-62
2023/03/16 10:00:32;;;;;;;0.20;0.20;;;;;;;13.83;24.66;100187.72;5056599;28;20041;-62
2023/03/16 10:03:31;;;;;;;0.20;0.20;;;;;;;14.30;25.36;100188.91;5070193;28;20037;-62
2023/03/16 10:06:02;;;;;;;0.20;0.20;;;;;;;14.46;25.19;100186.63;5053242;28;20527;-62
2023/03/16 10:08:39;;;;;;;0.20;0.20;;;;;;;14.05;24.37;100185.91;5053454;28;20053;-65
2023/03/16 10:11:08;;;;;;;0.20;0.20;;;;;;;14.88;23.80;100193.75;5069712;28;20028;-63
2023/03/16 10:13:48;;;;;;;0.20;0.20;;;;;;;15.20;23.33;100155.47;5069270;28;20025;-62
2023/03/16 10:16:29;;;;;;;0.20;0.20;;;;;;;15.57;22.88;100199.22;5069560;28;20025;-62
2023/03/16 10:19:18;;;;;;;0.20;0.20;;;;;;;15.33;22.55;100208.34;5070120;28;20032;-62
2023/03/16 10:21:53;;;;;;;0.20;0.20;;;;;;;14.58;23.99;100197.53;5053541;28;20082;-62
2023/03/16 10:24:40;;;;;;;0.20;0.20;;;;;;;15.06;23.93;100224.66;5052480;28;20119;-62
2023/03/16 10:27:15;;;;;;;0.20;0.20;;;;;;;15.27;24.24;100213.53;5069215;28;20075;-63
2023/03/16 10:29:41;;;;;;;0.20;0.20;;;;;;;15.41;23.55;100218.41;5052292;28;20029;-62
2023/03/16 10:32:18;;;;;;;0.20;0.20;;;;;;;15.73;22.87;100218.53;5052643;28;20036;-63
2023/03/16 10:34:57;;;;;;;0.20;0.20;;;;;;;15.78;23.17;100215.34;5052341;28;20037;-62
2023/03/16 10:37:24;;;;;;;0.20;0.20;;;;;;;15.13;23.72;100213.50;5068980;28;20028;-63
2023/03/16 10:39:50;;;;;;;0.20;0.20;;;;;;;15.17;24.21;100215.09;5052187;28;20078;-62
2023/03/16 10:42:20;;;;;;;0.20;0.20;;;;;;;15.88;24.07;100214.56;5052598;28;20029;-63
2023/03/16 10:44:48;;;;;;;0.20;0.20;;;;;;;15.78;24.18;100231.38;5052259;28;20502;-62
2023/03/16 10:47:26;;;;;;;0.20;0.20;;;;;;;15.89;23.37;100218.16;5069284;28;20025;-63
2023/03/16 10:49:52;;;;;;;0.20;0.20;;;;;;;14.99;22.89;100242.22;5069486;28;20025;-62
2023/03/16 10:52:36;;;;;;;0.20;0.20;;;;;;;15.04;24.33;100244.66;5068866;28;20353;-63
2023/03/16 10:55:20;;;;;;;0.20;0.20;;;;;;;15.73;24.85;100240.19;5069692;28;20055;-62
2023/03/16 10:57:55;;;;;;;0.20;0.20;;;;;;;14.93;25.20;100244.59;5075511;28;20040;-62
2023/03/16 11:00:27;;;;;;;0.20;0.20;;;;;;;14.98;25.10;100245.44;5076833;28;20060;-62
2023/03/16 11:02:55;;;;;;;0.20;0.20;;;;;;;14.20;25.80;100245.59;5098264;28;20036;-62
2023/03/16 11:05:25;;;;;;;0.20;0.20;;;;;;;14.27;26.35;100243.66;5098256;28;20110;-62
2023/03/16 11:08:09;;;;;;;0.20;0.20;;;;;;;14.82;26.11;100243.72;5080080;28;20363;-62
2023/03/16 11:10:43;;;;;;;0.20;0.20;;;;;;;14.59;26.17;100243.94;5097567;28;20024;-63
2023/03/16 11:13:19;;;;;;;0.22;0.22;;;;;;;14.33;26.85;100232.94;5079432;28;20107;-62
2023/03/16 11:16:23;;;;;;;0.20;0.20;;;;;;;14.02;27.48;100212.69;5079350;28;20020;-62
2023/03/16 11:18:58;;;;;;;0.20;0.20;;;;;;;14.23;26.88;100240.03;5096245;28;20032;-62
2023/03/16 11:21:53;;;;;;;0.20;0.20;;;;;;;14.53;27.17;100239.91;5079457;28;20478;-62
2023/03/16 11:24:42;;;;;;;0.20;0.20;;;;;;;13.98;27.43;100223.03;5079461;28;20457;-62
2023/03/16 11:27:23;;;;;;;0.28;0.28;;;;;;;14.10;27.41;100245.09;5077660;28;20514;-64
2023/03/16 11:30:04;;;;;;;0.20;0.20;;;;;;;14.68;27.34;100238.81;5082482;28;20481;-63
2023/03/16 11:32:36;;;;;;;0.20;0.20;;;;;;;14.59;27.08;100245.94;5079021;28;20024;-62
2023/03/16 11:35:18;;;;;;;0.20;0.20;;;;;;;14.67;27.28;100237.22;5078541;28;20040;-64
2023/03/16 11:37:56;;;;;;;0.20;0.20;;;;;;;14.53;27.16;100248.31;5079031;28;20107;-65
2023/03/16 11:40:40;;;;;;;0.20;0.20;;;;;;;14.25;27.78;100236.84;5078796;28;20024;-64
2023/03/16 11:43:34;;;;;;;0.20;0.20;;;;;;;14.74;28.50;100230.06;5079890;28;20027;-63
2023/03/16 11:46:14;;;;;;;0.20;0.20;;;;;;;14.80;27.54;100234.09;5080016;28;20035;-62
2023/03/16 11:49:10;;;;;;;0.20;0.20;;;;;;;14.85;28.21;100225.31;5097462;28;20331;-63
2023/03/16 11:51:38;;;;;;;0.20;0.20;;;;;;;15.08;26.84;100220.28;5079215;28;20031;-62
2023/03/16 11:54:27;;;;;;;0.20;0.20;;;;;;;15.26;27.57;100227.94;5079085;28;20034;-63